createdAt,value
2019-01-19T00:02:37.431Z,101640.88
2019-01-19T00:07:54.915Z,101637.81
2019-01-19T00:14:04.419Z,101640.75
2019-01-19T00:20:10.488Z,101639.08
2019-01-19T00:26:18.478Z,101636.53
2019-01-19T00:31:29.479Z,101639.54
2019-01-19T00:37:01.782Z,101637.39
2019-01-19T00:42:39.293Z,101644.14
2019-01-19T00:48:24.380Z,101638.08
2019-01-19T00:53:42.369Z,101638.51
2019-01-19T00:58:56.604Z,101639.88
2019-01-19T01:04:48.224Z,101642.93
2019-01-19T01:10:09.540Z,101643.37
2019-01-19T01:15:52.722Z,101641.16
2019-01-19T01:22:01.606Z,101644.58
2019-01-19T01:27:19.492Z,101645.02
2019-01-19T01:33:37.494Z,101650.52
2019-01-19T01:39:24.159Z,101648.35
2019-01-19T01:45:07.561Z,101644.09
2019-01-19T01:50:23.116Z,101646.22
2019-01-19T01:55:52.625Z,101644.52
2019-01-19T02:01:25.560Z,101645.86
2019-01-19T02:07:08.458Z,101639.39
2019-01-19T02:12:37.545Z,101647.14
2019-01-19T02:17:59.311Z,101634.39
2019-01-19T02:23:28.944Z,101639.11
2019-01-19T02:29:04.176Z,101631.46
2019-01-19T02:35:01.455Z,101629.83
2019-01-19T02:41:11.303Z,101629.04
2019-01-19T02:47:22.050Z,101633.34
2019-01-19T02:53:10.913Z,101639.83
2019-01-19T02:58:45.395Z,101635.66
2019-01-19T03:04:45.663Z,101639.53
2019-01-19T03:10:29.376Z,101636.59
2019-01-19T03:16:35.457Z,101635.31
2019-01-19T03:22:25.998Z,101630.61
2019-01-19T03:28:11.923Z,101629.45
2019-01-19T03:34:08.609Z,101632.95
2019-01-19T03:39:55.579Z,101627.95
2019-01-19T03:45:54.543Z,101634.36
2019-01-19T03:51:28.544Z,101631.84
2019-01-19T03:57:07.383Z,101631.48
2019-01-19T04:02:25.061Z,101630.32
2019-01-19T04:08:12.556Z,101627.35
2019-01-19T04:13:54.609Z,101633.33
2019-01-19T04:19:31.518Z,101633.77
2019-01-19T04:25:15.102Z,101630.34
2019-01-19T04:30:17.357Z,101637.61
2019-01-19T04:35:20.384Z,101632.91
2019-01-19T04:40:23.262Z,101636.38
2019-01-19T04:45:25.750Z,101633.33
2019-01-19T04:50:28.198Z,101638.03
2019-01-19T04:55:30.459Z,101640.11
2019-01-19T05:00:33.795Z,101636.38
2019-01-19T05:05:36.868Z,101641.09
2019-01-19T05:10:39.641Z,101635.95
2019-01-19T05:15:41.953Z,101633.82
2019-01-19T05:20:44.917Z,101624.84
2019-01-19T05:25:47.283Z,101624.83
2019-01-19T05:30:50.045Z,101623.14
2019-01-19T05:35:52.807Z,101635.96
2019-01-19T05:40:55.057Z,101633.39
2019-01-19T05:45:57.330Z,101639.42
2019-01-19T05:50:59.503Z,101638.27
2019-01-19T05:56:02.020Z,101638.38
2019-01-19T06:01:09.327Z,101642.81
2019-01-19T06:06:12.565Z,101642.43
2019-01-19T06:11:15.542Z,101647.52
2019-01-19T06:16:17.807Z,101641.58
2019-01-19T06:21:23.524Z,101640.68
2019-01-19T06:26:25.843Z,101643.67
2019-01-19T06:31:28.613Z,101647.89
2019-01-19T06:36:30.838Z,101644.91
2019-01-19T06:41:33.165Z,101643.19
2019-01-19T06:46:35.999Z,101649.60
2019-01-19T06:51:39.998Z,101650.45
2019-01-19T06:56:42.823Z,101643.23
2019-01-19T07:01:45.699Z,101657.23
2019-01-19T07:06:48.008Z,101655.47
2019-01-19T07:11:51.395Z,101662.69
2019-01-19T07:16:54.162Z,101659.75
2019-01-19T07:21:57.515Z,101656.43
2019-01-19T07:27:00.462Z,101662.42
2019-01-19T07:32:02.875Z,101665.50
2019-01-19T07:37:09.700Z,101665.09
2019-01-19T07:42:09.907Z,101676.25
2019-01-19T07:47:13.269Z,101677.14
2019-01-19T07:52:15.656Z,101686.88
2019-01-19T07:57:17.893Z,101692.33
2019-01-19T08:02:20.210Z,101692.66
2019-01-19T08:07:22.860Z,101693.94
2019-01-19T08:12:25.249Z,101696.17
2019-01-19T08:17:27.488Z,101695.38
2019-01-19T08:22:29.983Z,101696.17
2019-01-19T08:27:32.803Z,101697.73
2019-01-19T08:32:35.474Z,101696.78
2019-01-19T08:37:38.228Z,101712.59
2019-01-19T08:42:40.745Z,101712.74
2019-01-19T08:47:43.414Z,101712.27
2019-01-19T08:52:45.802Z,101721.50
2019-01-19T08:57:48.558Z,101714.09
2019-01-19T09:02:51.406Z,101715.98
2019-01-19T09:07:54.056Z,101720.45
2019-01-19T09:12:56.919Z,101717.45
2019-01-19T09:17:59.689Z,101720.52
2019-01-19T09:23:07.732Z,101716.20
2019-01-19T09:28:10.350Z,101710.16
2019-01-19T09:33:13.381Z,101714.91
2019-01-19T09:38:16.222Z,101713.08
2019-01-19T09:43:18.555Z,101709.76
2019-01-19T09:48:21.317Z,101710.61
2019-01-19T09:53:23.861Z,101707.13
2019-01-19T09:58:26.685Z,101705.23
2019-01-19T10:03:29.408Z,101703.69
2019-01-19T10:13:54.034Z,101705.91
2019-01-19T10:19:27.378Z,101700.29
2019-01-19T10:26:28.342Z,101703.62
2019-01-19T10:31:46.256Z,101705.31
2019-01-19T10:36:56.321Z,101699.25
2019-01-19T10:42:05.927Z,101695.58
2019-01-19T10:47:50.236Z,101696.75
2019-01-19T10:53:34.190Z,101695.52
2019-01-19T10:58:41.826Z,101687.16
2019-01-19T11:04:27.905Z,101677.55
2019-01-19T11:09:44.537Z,101685.52
2019-01-19T11:15:02.865Z,101670.03
2019-01-19T11:20:10.626Z,101669.31
2019-01-19T11:25:16.316Z,101659.15
2019-01-19T11:30:24.955Z,101660.21
2019-01-19T11:35:28.193Z,101653.03
2019-01-19T11:40:35.963Z,101647.52
2019-01-19T11:45:38.706Z,101645.02
2019-01-19T11:50:41.417Z,101636.00
2019-01-19T11:55:43.704Z,101635.77
2019-01-19T12:00:46.716Z,101621.81
2019-01-19T12:05:52.385Z,101622.63
2019-01-19T12:10:54.914Z,101617.14
2019-01-19T12:15:57.984Z,101619.63
2019-01-19T12:21:00.487Z,101614.73
2019-01-19T12:26:06.468Z,101612.14
2019-01-19T12:31:08.695Z,101615.80
2019-01-19T12:36:11.394Z,101617.13
2019-01-19T12:41:13.917Z,101606.05
2019-01-19T12:46:16.231Z,101607.00
2019-01-19T12:51:18.623Z,101606.02
2019-01-19T12:56:23.489Z,101602.11
2019-01-19T13:01:25.968Z,101605.98
2019-01-19T13:07:01.786Z,101600.48
2019-01-19T13:12:31.950Z,101595.99
2019-01-19T13:18:29.006Z,101596.11
2019-01-19T13:24:08.830Z,101594.19
2019-01-19T13:29:45.702Z,101588.69
2019-01-19T13:35:47.508Z,101580.60
2019-01-19T13:41:46.503Z,101579.14
2019-01-19T13:47:31.456Z,101571.06
2019-01-19T13:53:22.588Z,101575.02
2019-01-19T13:58:47.493Z,101572.88
2019-01-19T14:04:26.386Z,101572.74
2019-01-19T14:10:23.014Z,101573.54
2019-01-19T14:16:06.417Z,101578.58
2019-01-19T14:21:42.160Z,101560.50
2019-01-19T14:27:54.629Z,101558.25
2019-01-19T14:34:10.279Z,101555.89
2019-01-19T14:40:05.221Z,101558.25
2019-01-19T14:45:59.938Z,101558.91
2019-01-19T14:51:30.011Z,101558.31
2019-01-19T14:57:01.964Z,101548.47
2019-01-19T15:03:17.396Z,101551.67
2019-01-19T15:08:53.596Z,101554.84
2019-01-19T15:14:47.272Z,101546.09
2019-01-19T15:20:23.561Z,101548.84
2019-01-19T15:25:56.259Z,101550.78
2019-01-19T15:31:20.486Z,101554.39
2019-01-19T15:37:50.943Z,101547.22
2019-01-19T15:43:45.689Z,101548.20
2019-01-19T15:49:48.848Z,101546.23
2019-01-19T15:55:33.863Z,101537.34
2019-01-19T16:01:32.665Z,101536.28
2019-01-19T16:07:23.597Z,101538.12
2019-01-19T16:13:00.526Z,101536.45
2019-01-19T16:18:24.351Z,101531.48
2019-01-19T16:24:14.152Z,101526.05
2019-01-19T16:29:36.492Z,101525.88
2019-01-19T16:35:08.868Z,101527.42
2019-01-19T16:41:14.238Z,101529.84
2019-01-19T16:47:00.711Z,101531.87
2019-01-19T16:52:49.295Z,101521.00
2019-01-19T16:58:44.423Z,101520.36
2019-01-19T17:04:46.520Z,101532.54
2019-01-19T17:10:51.991Z,101523.30
2019-01-19T17:16:28.212Z,101525.16
2019-01-19T17:22:46.265Z,101519.75
2019-01-19T17:28:17.266Z,101519.02
2019-01-19T17:34:21.374Z,101521.81
2019-01-19T17:40:31.159Z,101520.75
2019-01-19T17:46:41.670Z,101523.16
2019-01-19T17:52:50.201Z,101527.78
2019-01-19T17:59:14.628Z,101526.89
2019-01-19T18:05:27.327Z,101531.38
2019-01-19T18:11:37.473Z,101533.64
2019-01-19T18:17:34.035Z,101530.73
2019-01-19T18:23:55.914Z,101531.78
2019-01-19T18:29:53.637Z,101533.77
2019-01-19T18:35:43.409Z,101533.95
2019-01-19T18:41:28.146Z,101528.13
2019-01-19T18:47:21.855Z,101532.00
2019-01-19T18:52:54.650Z,101533.88
2019-01-19T18:59:02.725Z,101532.25
2019-01-19T19:04:57.454Z,101535.41
2019-01-19T19:11:03.307Z,101531.25
2019-01-19T19:17:00.666Z,101522.39
2019-01-19T19:23:06.985Z,101522.93
2019-01-19T19:28:52.911Z,101521.73
2019-01-19T19:34:35.740Z,101522.31
2019-01-19T19:40:49.232Z,101520.28
2019-01-19T19:46:49.706Z,101527.27
2019-01-19T19:51:54.117Z,101523.94
2019-01-19T19:56:57.838Z,101531.71
2019-01-19T20:02:23.377Z,101533.97
2019-01-19T20:07:26.420Z,101525.02
2019-01-19T20:12:28.767Z,101522.09
2019-01-19T20:17:31.047Z,101524.80
2019-01-19T20:22:33.286Z,101522.67
2019-01-19T20:27:36.575Z,101522.31
2019-01-19T20:32:39.039Z,101523.66
2019-01-19T20:37:41.364Z,101525.88
2019-01-19T20:48:53.864Z,101515.75
2019-01-19T20:54:11.674Z,101518.40
2019-01-19T20:59:19.750Z,101524.86
2019-01-19T21:04:29.366Z,101522.44
2019-01-19T21:09:52.120Z,101521.70
2019-01-19T21:15:13.203Z,101522.19
2019-01-19T21:25:40.792Z,101517.67
2019-01-19T21:30:53.183Z,101515.12
2019-01-19T21:36:27.229Z,101518.16
2019-01-19T21:41:34.535Z,101511.38
2019-01-19T21:48:07.003Z,101511.45
2019-01-19T21:53:46.777Z,101517.01
2019-01-19T21:59:08.234Z,101513.28
2019-01-19T22:04:56.757Z,101517.17
2019-01-19T22:10:26.758Z,101511.22
2019-01-19T22:16:06.371Z,101515.11
2019-01-19T22:21:42.738Z,101509.66
2019-01-19T22:26:51.507Z,101502.04
2019-01-19T22:31:54.997Z,101502.19
2019-01-19T22:36:57.727Z,101501.39
2019-01-19T22:42:00.968Z,101504.84
2019-01-19T22:47:04.279Z,101501.87
2019-01-19T22:52:07.101Z,101496.36
2019-01-19T22:57:09.353Z,101494.70
2019-01-19T23:02:12.595Z,101490.48
2019-01-19T23:07:15.244Z,101494.80
2019-01-19T23:12:18.134Z,101492.30
2019-01-19T23:17:20.957Z,101490.59
2019-01-19T23:22:24.854Z,101486.33
2019-01-19T23:27:27.238Z,101486.37
2019-01-19T23:32:29.665Z,101483.42
2019-01-19T23:37:31.916Z,101486.06
2019-01-19T23:42:34.166Z,101483.98
2019-01-19T23:47:37.196Z,101476.78
2019-01-19T23:52:39.968Z,101478.09
2019-01-19T23:57:42.523Z,101472.60
